Terminal Aerodrome Forecast
Issued by NWS Birmingham, AL

Home | Current Version | Previous Version | Text Only | Print | Product List | Glossary On
Versions: 1 2 3 4 5 6 7 8 9 10 11 12 13 14 15 16 17
000
FTUS44 KBMX 060540
TAFBHM
TAF
KBHM 060540Z 0606/0706 09006KT P6SM OVC005
     FM060730 11008KT 4SM -RA BR OVC004
     FM060900 14008KT 4SM -RA BR VCTS OVC004CB
     FM061100 19010KT 6SM -DZ BR VCTS OVC004CB
     FM061600 26012KT P6SM OVC010
     FM062300 30008KT P6SM OVC008=

USA.gov is the U.S. government's official web portal to all federal, state and local government web resources and services.